Portada
METAR-TAF:

METAR-TAF

Aeropuertos :

Aeropuerto Internacional de Kunming-Changshui

Kunming, China

latitud: 25-01N, longitud: 102-41E, altitud: 1892 m

Observación

El informe se hizo hace 1 hora y 4 minutos, a las 22:00 UTC
Viento 6 kt del suroeste
Temperatura 13°C
Humedad 100%
Presión 1019 hPa
Visibilidad 10 km o más
Nubes dispersas a una altura de 2000 ft
Cielo nuboso a una altura de 4000 ft

METAR: ZPPP 282200Z 23003MPS 9999 SCT020 BKN040 13/13 Q1019 NOSIG

Hora: 07:04 (23:04 UTC)

Pronóstico

El informe se hizo hace 7 horas y 36 minutos, a las 15:28 UTC
Pronóstico válido del 28 a las 18 UTC al 29 a las 18 UTC
Viento 8 kt del suroeste
Visibilidad: 3100 m
Nubes dispersas a una altura de 300 ft
Nubes dispersas a una altura de 2300 ft
Cielo nuboso a una altura de 3300 ft
neblina

TAF: ZPPP 281528Z 2818/2918 22004MPS 3100 BR SCT003 SCT023 BKN033 TX23/2908Z TN12/2822Z

Observaciones y pronósticos meteorológicos de más de 4000 aeropuertos (mensajes METAR y TAF).

Los puntos amarillos y rojos representan las estaciones disponibles.

Ponga el ratón en el punto deseado para ver el nombre de la estación.

Haga clic para ver las observaciones y los pronósticos meteorológicos.

Para cambiar el mapa : haga clic en los botones verdes con una cruz de color negro para hacer un zoom, en el botón verde con un guión para alejar o en las flechas verdes para mapas adyacentes.


METAR-TAF: